Time,TemperatureF,DewpointF,PressureIn,WindDirection,WindDirectionDegrees,WindSpeedMPH,WindSpeedGustMPH,Humidity,HourlyPrecipIn,Conditions,Clouds,dailyrainin,SoftwareType,DateUTC
2013-09-10 00:01:00,73.5,69.1,30.88,East,79,1.0,9.0,86,0.00,,,0.00,VWS V13.01,2013-09-10 04:01:00,
2013-09-10 00:02:00,73.5,69.1,30.88,SSW,209,0.0,3.0,86,0.00,,,0.00,VWS V13.01,2013-09-10 04:02:00,
2013-09-10 00:07:00,73.4,69.3,30.88,ENE,73,2.0,3.0,87,0.00,,,0.00,VWS V13.01,2013-09-10 04:07:00,
2013-09-10 00:12:00,73.4,69.0,30.88,SSE,166,3.0,3.0,86,0.00,,,0.00,VWS V13.01,2013-09-10 04:12:00,
2013-09-10 00:17:00,73.3,68.9,30.88,SE,141,2.0,4.0,86,0.00,,,0.00,VWS V13.01,2013-09-10 04:17:00,
2013-09-10 00:22:00,73.2,68.8,30.88,ESE,109,3.0,4.0,86,0.00,,,0.00,VWS V13.01,2013-09-10 04:22:00,
2013-09-10 00:27:00,73.2,68.8,18.62,East,100,2.0,3.0,86,0.00,,,0.00,VWS V13.01,2013-09-10 04:27:00,
2013-09-10 00:32:00,73.1,68.7,18.62,East,101,2.0,2.0,86,0.00,,,0.00,VWS V13.01,2013-09-10 04:32:00,
2013-09-10 00:37:00,73.0,68.9,18.62,ENE,75,1.0,2.0,87,0.00,,,0.00,VWS V13.01,2013-09-10 04:37:00,
2013-09-10 00:42:00,72.9,68.8,18.62,East,90,2.0,3.0,87,0.00,,,0.00,VWS V13.01,2013-09-10 04:42:00,
2013-09-10 00:47:00,72.8,68.7,18.62,ESE,108,1.0,1.0,87,0.00,,,0.00,VWS V13.01,2013-09-10 04:47:00,
2013-09-10 00:52:00,72.7,68.6,18.62,ESE,123,3.0,4.0,87,0.00,,,0.00,VWS V13.01,2013-09-10 04:52:00,
2013-09-10 00:57:00,72.7,68.9,18.62,SSW,195,0.0,3.0,88,0.00,,,0.00,VWS V13.01,2013-09-10 04:57:00,
2013-09-10 01:02:00,72.6,68.8,18.62,East,94,0.0,2.0,88,0.00,,,0.00,VWS V13.01,2013-09-10 05:02:00,
2013-09-10 01:07:00,72.5,68.8,18.62,ESE,107,0.0,0.0,88,0.00,,,0.00,VWS V13.01,2013-09-10 05:07:00,
2013-09-10 01:12:00,72.5,68.8,18.62,SE,130,5.0,5.0,88,0.00,,,0.00,VWS V13.01,2013-09-10 05:12:00,
2013-09-10 01:17:00,72.5,68.8,18.62,East,88,1.0,3.0,88,0.00,,,0.00,VWS V13.01,2013-09-10 05:17:00,
2013-09-10 01:22:00,72.4,68.7,18.62,East,89,0.0,0.0,88,0.00,,,0.00,VWS V13.01,2013-09-10 05:22:00,
2013-09-10 01:27:00,72.4,68.7,18.62,ESE,112,0.0,4.0,88,0.00,,,0.00,VWS V13.01,2013-09-10 05:27:00,
2013-09-10 01:32:00,72.4,68.7,18.62,East,86,1.0,3.0,88,0.00,,,0.00,VWS V13.01,2013-09-10 05:32:00,
2013-09-10 01:37:00,72.3,68.9,18.62,East,89,1.0,3.0,89,0.00,,,0.00,VWS V13.01,2013-09-10 05:37:00,
2013-09-10 01:42:00,72.3,68.9,18.62,ESE,109,1.0,2.0,89,0.00,,,0.00,VWS V13.01,2013-09-10 05:42:00,
2013-09-10 01:47:00,72.3,68.9,30.88,SE,138,0.0,2.0,89,0.00,,,0.00,VWS V13.01,2013-09-10 05:47:00,
2013-09-10 01:52:00,72.3,68.9,30.88,East,101,2.0,3.0,89,0.00,,,0.00,VWS V13.01,2013-09-10 05:52:00,
2013-09-10 01:57:00,72.4,69.0,30.88,SE,126,3.0,3.0,89,0.00,,,0.00,VWS V13.01,2013-09-10 05:57:00,
2013-09-10 02:02:00,72.4,69.0,30.88,South,190,1.0,4.0,89,0.00,,,0.00,VWS V13.01,2013-09-10 06:02:00,
2013-09-10 02:07:00,72.4,69.0,30.88,SE,139,2.0,4.0,89,0.00,,,0.00,VWS V13.01,2013-09-10 06:07:00,
2013-09-10 02:12:00,72.4,69.0,30.88,ENE,72,2.0,6.0,89,0.00,,,0.00,VWS V13.01,2013-09-10 06:12:00,
2013-09-10 02:17:00,72.5,69.4,30.88,SE,130,3.0,4.0,90,0.00,,,0.00,VWS V13.01,2013-09-10 06:17:00,
2013-09-10 02:22:00,72.5,69.4,30.88,SE,128,4.0,4.0,90,0.00,,,0.00,VWS V13.01,2013-09-10 06:22:00,
2013-09-10 02:27:00,72.5,69.4,30.88,ESE,103,3.0,5.0,90,0.00,,,0.00,VWS V13.01,2013-09-10 06:27:00,
2013-09-10 02:32:00,72.5,69.4,30.88,SE,126,1.0,3.0,90,0.00,,,0.00,VWS V13.01,2013-09-10 06:32:00,
2013-09-10 02:37:00,72.5,69.4,30.88,SE,138,4.0,4.0,90,0.00,,,0.00,VWS V13.01,2013-09-10 06:37:00,
2013-09-10 02:42:00,72.5,69.4,30.88,SE,135,6.0,6.0,90,0.00,,,0.00,VWS V13.01,2013-09-10 06:42:00,
2013-09-10 02:47:00,72.5,69.4,30.88,ESE,105,2.0,4.0,90,0.00,,,0.00,VWS V13.01,2013-09-10 06:47:00,
2013-09-10 02:52:00,72.5,69.4,30.88,ESE,111,3.0,7.0,90,0.00,,,0.00,VWS V13.01,2013-09-10 06:52:00,
2013-09-10 02:57:00,72.4,69.3,30.88,East,86,4.0,6.0,90,0.00,,,0.00,VWS V13.01,2013-09-10 06:57:00,
2013-09-10 03:02:00,72.4,69.3,30.88,SSE,168,2.0,4.0,90,0.00,,,0.00,VWS V13.01,2013-09-10 07:02:00,
2013-09-10 03:07:00,72.4,69.3,30.88,East,101,0.0,3.0,90,0.00,,,0.00,VWS V13.01,2013-09-10 07:07:00,
2013-09-10 03:12:00,72.4,69.6,30.88,East,83,2.0,4.0,91,0.00,,,0.00,VWS V13.01,2013-09-10 07:12:00,
2013-09-10 03:17:00,72.3,69.2,30.88,ESE,120,0.0,0.0,90,0.00,,,0.00,VWS V13.01,2013-09-10 07:17:00,
2013-09-10 03:22:00,72.3,69.5,30.88,SE,138,1.0,4.0,91,0.00,,,0.00,VWS V13.01,2013-09-10 07:22:00,
2013-09-10 03:27:00,72.2,69.4,30.88,SSW,192,2.0,2.0,91,0.00,,,0.00,VWS V13.01,2013-09-10 07:27:00,
2013-09-10 03:32:00,72.3,69.5,30.88,East,83,0.0,0.0,91,0.00,,,0.00,VWS V13.01,2013-09-10 07:32:00,
2013-09-10 03:37:00,72.2,69.4,30.88,East,83,1.0,2.0,91,0.00,,,0.00,VWS V13.01,2013-09-10 07:37:00,
2013-09-10 03:42:00,72.2,69.4,30.88,ESE,120,1.0,2.0,91,0.00,,,0.00,VWS V13.01,2013-09-10 07:42:00,
2013-09-10 03:47:00,72.3,69.5,30.88,SSW,200,1.0,4.0,91,0.00,,,0.00,VWS V13.01,2013-09-10 07:47:00,
2013-09-10 03:52:00,72.2,69.4,30.88,ESE,114,0.0,3.0,91,0.00,,,0.00,VWS V13.01,2013-09-10 07:52:00,
2013-09-10 03:57:00,72.2,69.4,30.88,East,90,2.0,2.0,91,0.00,,,0.00,VWS V13.01,2013-09-10 07:57:00,
2013-09-10 04:02:00,72.3,69.5,30.88,ENE,78,2.0,2.0,91,0.00,,,0.00,VWS V13.01,2013-09-10 08:02:00,
2013-09-10 04:07:00,72.4,69.6,30.88,SSE,165,0.0,1.0,91,0.00,,,0.00,VWS V13.01,2013-09-10 08:07:00,
2013-09-10 04:12:00,72.4,69.6,30.88,SE,138,3.0,5.0,91,0.00,,,0.00,VWS V13.01,2013-09-10 08:12:00,
2013-09-10 04:17:00,72.4,69.6,30.88,SE,143,0.0,1.0,91,0.00,,,0.00,VWS V13.01,2013-09-10 08:17:00,
2013-09-10 04:22:00,72.4,69.6,30.88,South,174,1.0,3.0,91,0.00,,,0.00,VWS V13.01,2013-09-10 08:22:00,
2013-09-10 04:28:00,72.3,69.5,30.88,SSE,163,1.0,3.0,91,0.00,,,0.00,VWS V13.01,2013-09-10 08:28:00,
2013-09-10 04:32:00,72.5,69.7,30.88,SSE,159,0.0,1.0,91,0.00,,,0.00,VWS V13.01,2013-09-10 08:32:00,
2013-09-10 04:38:00,72.5,69.7,30.88,ESE,107,0.0,3.0,91,0.00,,,0.00,VWS V13.01,2013-09-10 08:38:00,
2013-09-10 04:43:00,72.6,69.8,16.93,SE,141,4.0,9.0,91,0.00,,,0.00,VWS V13.01,2013-09-10 08:43:00,
2013-09-10 04:47:00,72.7,69.9,16.93,SE,146,6.0,7.0,91,0.00,,,0.00,VWS V13.01,2013-09-10 08:47:00,
2013-09-10 04:53:00,72.8,70.0,16.93,ESE,123,3.0,6.0,91,0.00,,,0.00,VWS V13.01,2013-09-10 08:53:00,
2013-09-10 04:58:00,72.7,69.9,16.93,South,186,2.0,3.0,91,0.00,,,0.00,VWS V13.01,2013-09-10 08:58:00,
2013-09-10 05:03:00,72.6,69.8,16.93,ENE,76,3.0,6.0,91,0.00,,,0.00,VWS V13.01,2013-09-10 09:03:00,
2013-09-10 05:08:00,72.6,69.8,16.93,SSE,159,6.0,8.0,91,0.00,,,0.00,VWS V13.01,2013-09-10 09:08:00,
2013-09-10 05:13:00,72.6,69.8,16.93,SSE,168,2.0,6.0,91,0.00,,,0.00,VWS V13.01,2013-09-10 09:13:00,
2013-09-10 05:18:00,72.6,69.8,16.93,SSE,148,2.0,4.0,91,0.00,,,0.00,VWS V13.01,2013-09-10 09:18:00,
2013-09-10 05:23:00,72.6,69.8,16.93,WSW,250,0.0,2.0,91,0.00,,,0.00,VWS V13.01,2013-09-10 09:23:00,
2013-09-10 05:28:00,72.6,69.8,30.88,South,190,5.0,6.0,91,0.00,,,0.00,VWS V13.01,2013-09-10 09:28:00,
2013-09-10 05:33:00,72.6,69.8,30.88,SSW,196,2.0,6.0,91,0.00,,,0.00,VWS V13.01,2013-09-10 09:33:00,
2013-09-10 05:38:00,72.6,69.8,30.88,SSE,163,5.0,9.0,91,0.00,,,0.00,VWS V13.01,2013-09-10 09:38:00,
2013-09-10 05:43:00,72.6,69.8,30.88,SSE,157,3.0,9.0,91,0.00,,,0.00,VWS V13.01,2013-09-10 09:43:00,
2013-09-10 05:48:00,72.6,69.8,30.88,South,176,0.0,6.0,91,0.00,,,0.00,VWS V13.01,2013-09-10 09:48:00,
2013-09-10 05:53:00,72.7,69.9,30.88,SW,222,4.0,7.0,91,0.00,,,0.00,VWS V13.01,2013-09-10 09:53:00,
2013-09-10 05:58:00,72.7,69.9,30.88,SSE,149,3.0,5.0,91,0.00,,,0.00,VWS V13.01,2013-09-10 09:58:00,
2013-09-10 06:03:00,72.7,69.6,30.88,ESE,119,0.0,1.0,90,0.00,,,0.00,VWS V13.01,2013-09-10 10:03:00,
2013-09-10 06:08:00,72.7,69.9,30.88,SW,221,3.0,5.0,91,0.00,,,0.00,VWS V13.01,2013-09-10 10:08:00,
2013-09-10 06:13:00,72.8,70.0,30.88,SSW,193,3.0,4.0,91,0.00,,,0.00,VWS V13.01,2013-09-10 10:13:00,
2013-09-10 06:18:00,72.8,70.0,30.88,ESE,122,1.0,4.0,91,0.00,,,0.00,VWS V13.01,2013-09-10 10:18:00,
2013-09-10 06:23:00,72.8,69.7,30.88,South,184,2.0,3.0,90,0.00,,,0.00,VWS V13.01,2013-09-10 10:23:00,
2013-09-10 06:28:00,72.8,70.0,30.88,SSE,167,0.0,6.0,91,0.00,,,0.00,VWS V13.01,2013-09-10 10:28:00,
2013-09-10 06:33:00,72.8,69.7,30.88,SE,133,4.0,5.0,90,0.00,,,0.00,VWS V13.01,2013-09-10 10:33:00,
2013-09-10 06:38:00,72.8,69.7,30.88,South,173,3.0,4.0,90,0.00,,,0.00,VWS V13.01,2013-09-10 10:38:00,
2013-09-10 06:43:00,72.8,69.7,30.88,South,175,0.0,3.0,90,0.00,,,0.00,VWS V13.01,2013-09-10 10:43:00,
2013-09-10 06:48:00,72.8,69.7,30.88,South,171,2.0,5.0,90,0.00,,,0.00,VWS V13.01,2013-09-10 10:48:00,
2013-09-10 06:53:00,72.8,69.7,30.88,SSW,199,2.0,3.0,90,0.00,,,0.00,VWS V13.01,2013-09-10 10:53:00,
2013-09-10 06:58:00,72.8,69.7,30.88,ESE,102,0.0,3.0,90,0.00,,,0.00,VWS V13.01,2013-09-10 10:58:00,
2013-09-10 07:03:00,72.8,69.7,30.88,ESE,111,2.0,3.0,90,0.00,,,0.00,VWS V13.01,2013-09-10 11:03:00,
2013-09-10 07:08:00,72.7,69.6,30.88,East,98,0.0,1.0,90,0.00,,,0.00,VWS V13.01,2013-09-10 11:08:00,
2013-09-10 07:13:00,72.7,69.6,30.88,East,98,0.0,1.0,90,0.00,,,0.00,VWS V13.01,2013-09-10 11:13:00,
2013-09-10 07:18:00,72.7,69.6,30.88,East,99,0.0,1.0,90,0.00,,,0.00,VWS V13.01,2013-09-10 11:18:00,
2013-09-10 07:23:00,72.8,69.7,30.88,SE,124,0.0,1.0,90,0.00,,,0.00,VWS V13.01,2013-09-10 11:23:00,
2013-09-10 07:28:00,72.7,69.6,30.88,SE,132,1.0,2.0,90,0.00,,,0.00,VWS V13.01,2013-09-10 11:28:00,
2013-09-10 07:33:00,72.8,69.7,30.88,East,101,0.0,3.0,90,0.00,,,0.00,VWS V13.01,2013-09-10 11:33:00,
2013-09-10 07:38:00,72.7,69.6,30.88,East,98,0.0,1.0,90,0.00,,,0.00,VWS V13.01,2013-09-10 11:38:00,
2013-09-10 07:43:00,72.8,69.7,30.88,East,83,2.0,2.0,90,0.00,,,0.00,VWS V13.01,2013-09-10 11:43:00,
2013-09-10 07:48:00,72.9,69.8,30.88,SSE,167,3.0,4.0,90,0.00,,,0.00,VWS V13.01,2013-09-10 11:48:00,
2013-09-10 07:53:00,72.9,69.8,30.88,SE,128,2.0,4.0,90,0.00,,,0.00,VWS V13.01,2013-09-10 11:53:00,
2013-09-10 07:58:00,72.9,69.8,30.88,SSE,150,4.0,5.0,90,0.00,,,0.00,VWS V13.01,2013-09-10 11:58:00,
2013-09-10 08:03:00,73.0,69.9,30.88,ESE,121,0.0,0.0,90,0.00,,,0.00,VWS V13.01,2013-09-10 12:03:00,
2013-09-10 08:08:00,73.2,70.1,30.88,South,180,0.0,3.0,90,0.00,,,0.00,VWS V13.01,2013-09-10 12:08:00,
2013-09-10 08:13:00,73.3,70.2,30.88,SSE,163,3.0,5.0,90,0.00,,,0.00,VWS V13.01,2013-09-10 12:13:00,
2013-09-10 08:18:00,73.3,70.2,18.62,SW,225,1.0,1.0,90,0.00,,,0.00,VWS V13.01,2013-09-10 12:18:00,
2013-09-10 08:24:00,73.5,70.4,30.88,South,178,0.0,5.0,90,0.00,,,0.00,VWS V13.01,2013-09-10 12:24:00,
2013-09-10 08:29:00,73.6,70.2,18.62,East,80,3.0,4.0,89,0.00,,,0.00,VWS V13.01,2013-09-10 12:29:00,
2013-09-10 08:34:00,73.9,70.5,18.62,SE,142,2.0,3.0,89,0.00,,,0.00,VWS V13.01,2013-09-10 12:34:00,
2013-09-10 08:39:00,74.0,70.6,18.62,SE,134,0.0,3.0,89,0.00,,,0.00,VWS V13.01,2013-09-10 12:39:00,
2013-09-10 08:44:00,74.2,70.8,18.62,ESE,107,0.0,6.0,89,0.00,,,0.00,VWS V13.01,2013-09-10 12:44:00,
2013-09-10 08:49:00,74.4,70.6,18.62,SSE,163,4.0,6.0,88,0.00,,,0.00,VWS V13.01,2013-09-10 12:49:00,
2013-09-10 08:54:00,74.5,70.7,18.62,SE,145,1.0,4.0,88,0.00,,,0.00,VWS V13.01,2013-09-10 12:54:00,
2013-09-10 08:59:00,74.7,70.9,18.62,South,186,0.0,5.0,88,0.00,,,0.00,VWS V13.01,2013-09-10 12:59:00,
2013-09-10 09:04:00,75.0,70.9,18.62,SE,126,1.0,2.0,87,0.00,,,0.00,VWS V13.01,2013-09-10 13:04:00,
2013-09-10 09:09:00,75.5,71.4,18.62,South,171,3.0,5.0,87,0.00,,,0.00,VWS V13.01,2013-09-10 13:09:00,
2013-09-10 09:14:00,75.6,71.1,18.62,East,93,2.0,4.0,86,0.00,,,0.00,VWS V13.01,2013-09-10 13:14:00,
2013-09-10 09:19:00,75.9,71.4,18.62,SE,129,0.0,6.0,86,0.00,,,0.00,VWS V13.01,2013-09-10 13:19:00,
2013-09-10 09:24:00,76.2,71.4,18.62,South,188,3.0,4.0,85,0.00,,,0.00,VWS V13.01,2013-09-10 13:24:00,
2013-09-10 09:29:00,76.5,71.7,18.62,South,169,0.0,3.0,85,0.00,,,0.00,VWS V13.01,2013-09-10 13:29:00,
2013-09-10 09:34:00,76.8,71.6,18.62,SE,128,2.0,7.0,84,0.00,,,0.00,VWS V13.01,2013-09-10 13:34:00,
2013-09-10 09:39:00,76.9,71.7,18.62,SW,229,2.0,7.0,84,0.00,,,0.00,VWS V13.01,2013-09-10 13:39:00,
2013-09-10 09:44:00,77.3,72.1,18.62,SSW,207,3.0,7.0,84,0.00,,,0.00,VWS V13.01,2013-09-10 13:44:00,
2013-09-10 09:49:00,77.6,72.0,18.62,SSW,192,1.0,6.0,83,0.00,,,0.00,VWS V13.01,2013-09-10 13:49:00,
2013-09-10 09:54:00,78.1,72.5,18.62,SSW,212,3.0,4.0,83,0.00,,,0.00,VWS V13.01,2013-09-10 13:54:00,
2013-09-10 09:59:00,78.5,72.6,18.62,South,189,2.0,4.0,82,0.00,,,0.00,VWS V13.01,2013-09-10 13:59:00,
2013-09-10 10:04:00,78.7,72.8,18.62,South,182,3.0,4.0,82,0.00,,,0.00,VWS V13.01,2013-09-10 14:04:00,
2013-09-10 10:09:00,79.2,72.5,18.62,East,84,2.0,3.0,80,0.00,,,0.00,VWS V13.01,2013-09-10 14:09:00,
2013-09-10 10:14:00,79.9,73.2,18.62,SSW,207,2.0,2.0,80,0.00,,,0.00,VWS V13.01,2013-09-10 14:14:00,
2013-09-10 10:19:00,80.0,72.9,18.62,SW,223,4.0,5.0,79,0.00,,,0.00,VWS V13.01,2013-09-10 14:19:00,
2013-09-10 10:24:00,79.8,72.7,18.62,South,190,3.0,5.0,79,0.00,,,0.00,VWS V13.01,2013-09-10 14:24:00,
2013-09-10 10:29:00,79.8,72.7,18.62,SW,225,2.0,4.0,79,0.00,,,0.00,VWS V13.01,2013-09-10 14:29:00,
2013-09-10 10:34:00,80.3,72.8,18.62,SSE,160,0.0,4.0,78,0.00,,,0.00,VWS V13.01,2013-09-10 14:34:00,
2013-09-10 10:39:00,81.1,73.6,30.88,SSW,192,7.0,8.0,78,0.00,,,0.00,VWS V13.01,2013-09-10 14:39:00,
2013-09-10 10:44:00,81.1,73.2,30.88,South,190,2.0,6.0,77,0.00,,,0.00,VWS V13.01,2013-09-10 14:44:00,
2013-09-10 10:49:00,81.4,73.5,30.88,SSE,165,6.0,6.0,77,0.00,,,0.00,VWS V13.01,2013-09-10 14:49:00,
2013-09-10 10:54:00,81.2,73.3,30.88,South,183,2.0,5.0,77,0.00,,,0.00,VWS V13.01,2013-09-10 14:54:00,
2013-09-10 10:59:00,81.5,73.2,30.88,SW,228,1.0,2.0,76,0.00,,,0.00,VWS V13.01,2013-09-10 14:59:00,
2013-09-10 11:04:00,82.0,73.3,30.88,ENE,68,2.0,4.0,75,0.00,,,0.00,VWS V13.01,2013-09-10 15:04:00,
2013-09-10 11:09:00,82.6,73.5,30.88,SW,229,2.0,6.0,74,0.00,,,0.00,VWS V13.01,2013-09-10 15:09:00,
2013-09-10 11:14:00,83.0,73.9,30.88,South,177,3.0,3.0,74,0.00,,,0.00,VWS V13.01,2013-09-10 15:14:00,
2013-09-10 11:19:00,82.9,73.8,30.88,East,100,0.0,3.0,74,0.00,,,0.00,VWS V13.01,2013-09-10 15:19:00,
2013-09-10 11:24:00,83.3,73.8,30.88,South,186,0.0,6.0,73,0.00,,,0.00,VWS V13.01,2013-09-10 15:24:00,
2013-09-10 11:29:00,83.5,73.5,30.88,WSW,243,2.0,6.0,72,0.00,,,0.00,VWS V13.01,2013-09-10 15:29:00,
2013-09-10 11:34:00,83.6,73.2,30.88,SW,222,2.0,4.0,71,0.00,,,0.00,VWS V13.01,2013-09-10 15:34:00,
2013-09-10 11:39:00,84.3,74.3,30.88,NE,51,2.0,2.0,72,0.00,,,0.00,VWS V13.01,2013-09-10 15:39:00,
2013-09-10 11:44:00,84.8,74.4,30.88,East,91,1.0,4.0,71,0.00,,,0.00,VWS V13.01,2013-09-10 15:44:00,
2013-09-10 11:49:00,85.4,74.9,30.88,East,100,3.0,6.0,71,0.00,,,0.00,VWS V13.01,2013-09-10 15:49:00,
2013-09-10 11:54:00,84.7,74.3,30.88,ESE,103,1.0,7.0,71,0.00,,,0.00,VWS V13.01,2013-09-10 15:54:00,
2013-09-10 11:59:00,85.0,74.1,30.88,South,176,4.0,5.0,70,0.00,,,0.00,VWS V13.01,2013-09-10 15:59:00,
2013-09-10 12:04:00,85.5,74.6,30.88,WSW,244,2.0,5.0,70,0.00,,,0.00,VWS V13.01,2013-09-10 16:04:00,
2013-09-10 12:09:00,85.4,74.5,30.88,SSE,161,2.0,4.0,70,0.00,,,0.00,VWS V13.01,2013-09-10 16:09:00,
2013-09-10 12:15:00,86.6,74.8,30.88,SSE,153,1.0,4.0,68,0.00,,,0.00,VWS V13.01,2013-09-10 16:15:00,
2013-09-10 12:20:00,87.4,74.7,30.88,SE,137,0.0,3.0,66,0.00,,,0.00,VWS V13.01,2013-09-10 16:20:00,
2013-09-10 12:25:00,88.0,75.2,30.88,South,169,3.0,4.0,66,0.00,,,0.00,VWS V13.01,2013-09-10 16:25:00,
2013-09-10 12:30:00,87.3,75.4,30.88,SSE,152,1.0,6.0,68,0.00,,,0.00,VWS V13.01,2013-09-10 16:30:00,
2013-09-10 12:35:00,87.1,75.3,30.88,SW,229,2.0,5.0,68,0.00,,,0.00,VWS V13.01,2013-09-10 16:35:00,
2013-09-10 12:40:00,87.0,75.6,30.88,SE,144,3.0,6.0,69,0.00,,,0.00,VWS V13.01,2013-09-10 16:40:00,
2013-09-10 12:45:00,86.6,75.2,30.88,SSW,211,4.0,7.0,69,0.00,,,0.00,VWS V13.01,2013-09-10 16:45:00,
2013-09-10 12:50:00,87.0,75.6,30.88,SE,143,0.0,4.0,69,0.00,,,0.00,VWS V13.01,2013-09-10 16:50:00,
2013-09-10 12:55:00,87.7,75.8,30.88,WSW,252,3.0,4.0,68,0.00,,,0.00,VWS V13.01,2013-09-10 16:55:00,
2013-09-10 13:00:00,87.9,76.0,30.88,South,191,3.0,6.0,68,0.00,,,0.00,VWS V13.01,2013-09-10 17:00:00,
2013-09-10 13:05:00,88.0,76.1,30.88,SE,137,2.0,5.0,68,0.00,,,0.00,VWS V13.01,2013-09-10 17:05:00,
2013-09-10 13:10:00,87.7,75.8,30.88,ESE,110,4.0,6.0,68,0.00,,,0.00,VWS V13.01,2013-09-10 17:10:00,
2013-09-10 13:15:00,87.8,75.5,30.88,SSE,159,2.0,6.0,67,0.00,,,0.00,VWS V13.01,2013-09-10 17:15:00,
2013-09-10 13:20:00,88.0,75.7,30.88,NE,55,5.0,6.0,67,0.00,,,0.00,VWS V13.01,2013-09-10 17:20:00,
2013-09-10 13:25:00,88.1,76.2,30.88,SSE,158,3.0,6.0,68,0.00,,,0.00,VWS V13.01,2013-09-10 17:25:00,
2013-09-10 13:30:00,88.2,76.3,30.88,East,83,2.0,7.0,68,0.00,,,0.00,VWS V13.01,2013-09-10 17:30:00,
2013-09-10 13:35:00,88.7,76.3,30.88,SE,126,5.0,5.0,67,0.00,,,0.00,VWS V13.01,2013-09-10 17:35:00,
2013-09-10 13:40:00,88.4,76.5,30.88,East,94,3.0,6.0,68,0.00,,,0.00,VWS V13.01,2013-09-10 17:40:00,
2013-09-10 13:45:00,88.5,76.2,30.88,SSE,157,3.0,6.0,67,0.00,,,0.00,VWS V13.01,2013-09-10 17:45:00,
2013-09-10 13:50:00,88.6,76.2,30.88,ENE,76,4.0,7.0,67,0.00,,,0.00,VWS V13.01,2013-09-10 17:50:00,
2013-09-10 13:55:00,88.7,76.3,30.88,East,94,4.0,4.0,67,0.00,,,0.00,VWS V13.01,2013-09-10 17:55:00,
2013-09-10 14:00:00,88.9,76.5,30.88,ENE,71,0.0,5.0,67,0.00,,,0.00,VWS V13.01,2013-09-10 18:00:00,
2013-09-10 14:05:00,88.6,76.2,30.88,SE,138,2.0,11.0,67,0.00,,,0.00,VWS V13.01,2013-09-10 18:05:00,
2013-09-10 14:10:00,88.3,76.0,30.88,SSE,148,2.0,7.0,67,0.00,,,0.00,VWS V13.01,2013-09-10 18:10:00,
2013-09-10 14:15:00,88.2,76.3,30.88,South,169,8.0,8.0,68,0.00,,,0.00,VWS V13.01,2013-09-10 18:15:00,
2013-09-10 14:20:00,87.8,75.9,30.88,ESE,117,3.0,6.0,68,0.00,,,0.00,VWS V13.01,2013-09-10 18:20:00,
2013-09-10 14:25:00,88.0,76.1,30.88,ESE,113,4.0,7.0,68,0.00,,,0.00,VWS V13.01,2013-09-10 18:25:00,
2013-09-10 14:30:00,88.4,75.6,30.88,East,96,3.0,7.0,66,0.00,,,0.00,VWS V13.01,2013-09-10 18:30:00,
2013-09-10 14:35:00,88.9,76.5,30.88,East,98,2.0,7.0,67,0.00,,,0.00,VWS V13.01,2013-09-10 18:35:00,
2013-09-10 14:40:00,89.0,76.6,30.88,South,181,5.0,7.0,67,0.00,,,0.00,VWS V13.01,2013-09-10 18:40:00,
2013-09-10 14:45:00,88.8,76.0,30.88,WSW,257,2.0,10.0,66,0.00,,,0.00,VWS V13.01,2013-09-10 18:45:00,
2013-09-10 14:50:00,88.8,76.4,30.88,ESE,111,2.0,10.0,67,0.00,,,0.00,VWS V13.01,2013-09-10 18:50:00,
2013-09-10 14:55:00,88.8,76.0,30.88,East,86,3.0,9.0,66,0.00,,,0.00,VWS V13.01,2013-09-10 18:55:00,
2013-09-10 15:00:00,89.3,76.5,30.88,SE,128,5.0,9.0,66,0.00,,,0.00,VWS V13.01,2013-09-10 19:00:00,
2013-09-10 15:05:00,88.8,76.0,30.88,ESE,109,5.0,9.0,66,0.00,,,0.00,VWS V13.01,2013-09-10 19:05:00,
2013-09-10 15:10:00,89.3,76.5,30.88,SSE,157,8.0,9.0,66,0.00,,,0.00,VWS V13.01,2013-09-10 19:10:00,
2013-09-10 15:15:00,89.6,76.3,30.88,SE,140,3.0,10.0,65,0.00,,,0.00,VWS V13.01,2013-09-10 19:15:00,
2013-09-10 15:20:00,88.9,75.6,30.88,East,86,1.0,9.0,65,0.00,,,0.00,VWS V13.01,2013-09-10 19:20:00,
2013-09-10 15:25:00,89.0,75.7,30.88,ENE,62,7.0,10.0,65,0.00,,,0.00,VWS V13.01,2013-09-10 19:25:00,
2013-09-10 15:30:00,89.2,75.9,30.88,NNE,13,1.0,6.0,65,0.00,,,0.00,VWS V13.01,2013-09-10 19:30:00,
2013-09-10 15:35:00,89.4,75.2,30.88,SE,143,2.0,7.0,63,0.00,,,0.00,VWS V13.01,2013-09-10 19:35:00,
2013-09-10 15:40:00,89.4,75.6,30.88,NNE,31,7.0,8.0,64,0.00,,,0.00,VWS V13.01,2013-09-10 19:40:00,
2013-09-10 15:45:00,89.1,74.9,30.88,SE,144,1.0,7.0,63,0.00,,,0.00,VWS V13.01,2013-09-10 19:45:00,
2013-09-10 15:50:00,89.1,75.3,30.88,ESE,114,5.0,10.0,64,0.00,,,0.00,VWS V13.01,2013-09-10 19:50:00,
2013-09-10 15:55:00,89.2,75.0,30.88,East,89,2.0,10.0,63,0.00,,,0.00,VWS V13.01,2013-09-10 19:55:00,
2013-09-10 16:00:00,89.4,75.2,30.88,SW,227,2.0,10.0,63,0.00,,,0.00,VWS V13.01,2013-09-10 20:00:00,
2013-09-10 16:05:00,89.5,74.8,30.88,SSE,152,4.0,6.0,62,0.00,,,0.00,VWS V13.01,2013-09-10 20:05:00,
2013-09-10 16:10:00,89.5,74.8,30.88,South,186,2.0,7.0,62,0.00,,,0.00,VWS V13.01,2013-09-10 20:10:00,
2013-09-10 16:15:00,89.4,75.2,30.88,SSE,160,5.0,10.0,63,0.00,,,0.00,VWS V13.01,2013-09-10 20:15:00,
2013-09-10 16:20:00,89.4,75.2,30.88,SW,219,2.0,6.0,63,0.00,,,0.00,VWS V13.01,2013-09-10 20:20:00,
2013-09-10 16:25:00,89.4,74.7,30.88,SSE,157,3.0,8.0,62,0.00,,,0.00,VWS V13.01,2013-09-10 20:25:00,
2013-09-10 16:30:00,89.2,75.4,30.88,East,91,0.0,8.0,64,0.00,,,0.00,VWS V13.01,2013-09-10 20:30:00,
2013-09-10 16:35:00,89.4,75.2,30.88,East,93,5.0,9.0,63,0.00,,,0.00,VWS V13.01,2013-09-10 20:35:00,
2013-09-10 16:40:00,89.2,75.0,30.88,ESE,121,0.0,9.0,63,0.00,,,0.00,VWS V13.01,2013-09-10 20:40:00,
2013-09-10 16:45:00,89.0,75.2,30.88,SE,140,0.0,9.0,64,0.00,,,0.00,VWS V13.01,2013-09-10 20:45:00,
2013-09-10 16:50:00,89.1,74.9,30.88,SSE,150,2.0,10.0,63,0.00,,,0.00,VWS V13.01,2013-09-10 20:50:00,
2013-09-10 16:55:00,89.0,74.8,30.88,SW,221,5.0,9.0,63,0.00,,,0.00,VWS V13.01,2013-09-10 20:55:00,
2013-09-10 17:00:00,89.2,75.0,30.88,SSE,156,2.0,6.0,63,0.00,,,0.00,VWS V13.01,2013-09-10 21:00:00,
2013-09-10 17:05:00,89.1,74.9,30.88,ENE,78,2.0,8.0,63,0.00,,,0.00,VWS V13.01,2013-09-10 21:05:00,
2013-09-10 17:10:00,89.2,75.4,30.88,East,92,0.0,5.0,64,0.00,,,0.00,VWS V13.01,2013-09-10 21:10:00,
2013-09-10 17:15:00,89.4,75.6,30.88,SE,138,1.0,4.0,64,0.00,,,0.00,VWS V13.01,2013-09-10 21:15:00,
2013-09-10 17:20:00,89.2,75.4,30.88,East,81,2.0,9.0,64,0.00,,,0.00,VWS V13.01,2013-09-10 21:20:00,
2013-09-10 17:25:00,88.8,74.6,30.88,East,96,2.0,9.0,63,0.00,,,0.00,VWS V13.01,2013-09-10 21:25:00,
2013-09-10 17:30:00,88.4,74.7,30.88,SE,146,5.0,10.0,64,0.00,,,0.00,VWS V13.01,2013-09-10 21:30:00,
2013-09-10 17:35:00,88.4,75.1,30.88,ESE,117,1.0,8.0,65,0.00,,,0.00,VWS V13.01,2013-09-10 21:35:00,
2013-09-10 17:40:00,88.3,74.6,30.88,ESE,102,1.0,9.0,64,0.00,,,0.00,VWS V13.01,2013-09-10 21:40:00,
2013-09-10 17:45:00,88.3,75.1,30.88,ESE,107,0.0,7.0,65,0.00,,,0.00,VWS V13.01,2013-09-10 21:45:00,
2013-09-10 17:50:00,88.4,75.1,30.88,SSE,159,3.0,9.0,65,0.00,,,0.00,VWS V13.01,2013-09-10 21:50:00,
2013-09-10 17:55:00,88.1,74.4,30.88,ENE,64,1.0,9.0,64,0.00,,,0.00,VWS V13.01,2013-09-10 21:55:00,
2013-09-10 18:00:00,88.1,74.4,30.88,East,82,2.0,6.0,64,0.00,,,0.00,VWS V13.01,2013-09-10 22:00:00,
2013-09-10 18:05:00,88.0,74.8,30.88,SE,139,1.0,8.0,65,0.00,,,0.00,VWS V13.01,2013-09-10 22:05:00,
2013-09-10 18:10:00,87.9,74.7,30.88,West,271,1.0,5.0,65,0.00,,,0.00,VWS V13.01,2013-09-10 22:10:00,
2013-09-10 18:15:00,88.0,74.8,30.88,SE,127,0.0,3.0,65,0.00,,,0.00,VWS V13.01,2013-09-10 22:15:00,
2013-09-10 18:20:00,87.7,75.4,30.88,East,84,2.0,7.0,67,0.00,,,0.00,VWS V13.01,2013-09-10 22:20:00,
2013-09-10 18:25:00,87.4,75.6,30.88,SSE,164,2.0,5.0,68,0.00,,,0.00,VWS V13.01,2013-09-10 22:25:00,
2013-09-10 18:30:00,87.3,75.4,30.88,ENE,69,1.0,7.0,68,0.00,,,0.00,VWS V13.01,2013-09-10 22:30:00,
2013-09-10 18:35:00,87.1,75.3,30.88,East,86,2.0,7.0,68,0.00,,,0.00,VWS V13.01,2013-09-10 22:35:00,
2013-09-10 18:40:00,86.8,75.4,30.88,ESE,119,3.0,5.0,69,0.00,,,0.00,VWS V13.01,2013-09-10 22:40:00,
2013-09-10 18:45:00,86.6,75.7,30.88,SSE,148,2.0,6.0,70,0.00,,,0.00,VWS V13.01,2013-09-10 22:45:00,
2013-09-10 18:50:00,86.4,75.5,30.88,SSE,153,1.0,6.0,70,0.00,,,0.00,VWS V13.01,2013-09-10 22:50:00,
2013-09-10 18:55:00,86.3,75.4,30.88,East,94,2.0,6.0,70,0.00,,,0.00,VWS V13.01,2013-09-10 22:55:00,
2013-09-10 19:00:00,86.1,75.6,30.88,SSE,161,1.0,4.0,71,0.00,,,0.00,VWS V13.01,2013-09-10 23:00:00,
2013-09-10 19:05:00,86.0,75.5,30.88,SE,145,1.0,5.0,71,0.00,,,0.00,VWS V13.01,2013-09-10 23:05:00,
2013-09-10 19:10:00,85.9,75.0,17.42,SE,140,0.0,3.0,70,0.00,,,0.00,VWS V13.01,2013-09-10 23:10:00,
2013-09-10 19:15:00,85.7,75.2,17.42,ENE,78,0.0,7.0,71,0.00,,,0.00,VWS V13.01,2013-09-10 23:15:00,
2013-09-10 19:20:00,85.6,75.5,17.42,SSE,155,3.0,5.0,72,0.00,,,0.00,VWS V13.01,2013-09-10 23:20:00,
2013-09-10 19:25:00,85.4,75.3,17.43,East,86,2.0,4.0,72,0.00,,,0.00,VWS V13.01,2013-09-10 23:25:00,
2013-09-10 19:30:00,85.3,75.2,17.42,East,87,0.0,2.0,72,0.00,,,0.00,VWS V13.01,2013-09-10 23:30:00,
2013-09-10 19:35:00,85.1,75.1,17.42,ESE,122,1.0,4.0,72,0.00,,,0.00,VWS V13.01,2013-09-10 23:35:00,
2013-09-10 19:40:00,85.0,75.0,17.42,ESE,107,0.0,5.0,72,0.00,,,0.00,VWS V13.01,2013-09-10 23:40:00,
2013-09-10 19:45:00,84.8,74.8,17.42,ESE,107,0.0,1.0,72,0.00,,,0.00,VWS V13.01,2013-09-10 23:45:00,
2013-09-10 19:50:00,84.6,75.0,17.42,East,96,1.0,4.0,73,0.00,,,0.00,VWS V13.01,2013-09-10 23:50:00,
2013-09-10 19:55:00,84.3,74.7,17.42,East,96,2.0,3.0,73,0.00,,,0.00,VWS V13.01,2013-09-10 23:55:00,
2013-09-10 20:00:00,84.2,75.0,17.42,ESE,103,0.0,1.0,74,0.00,,,0.00,VWS V13.01,2013-09-11 00:00:00,
2013-09-10 20:05:00,84.2,75.4,17.42,ESE,119,1.0,6.0,75,0.00,,,0.00,VWS V13.01,2013-09-11 00:05:00,
2013-09-10 20:10:00,84.1,74.9,17.42,ESE,122,3.0,3.0,74,0.00,,,0.00,VWS V13.01,2013-09-11 00:10:00,
2013-09-10 20:15:00,83.9,75.1,17.42,East,98,3.0,3.0,75,0.00,,,0.00,VWS V13.01,2013-09-11 00:15:00,
2013-09-10 20:20:00,83.7,74.9,16.92,ESE,112,0.0,4.0,75,0.00,,,0.00,VWS V13.01,2013-09-11 00:20:00,
2013-09-10 20:25:00,83.6,74.8,17.42,ESE,111,0.0,0.0,75,0.00,,,0.00,VWS V13.01,2013-09-11 00:25:00,
2013-09-10 20:30:00,83.3,74.6,17.42,ESE,111,0.0,1.0,75,0.00,,,0.00,VWS V13.01,2013-09-11 00:30:00,
2013-09-10 20:35:00,83.1,74.8,17.42,ESE,107,0.0,2.0,76,0.00,,,0.00,VWS V13.01,2013-09-11 00:35:00,
2013-09-10 20:40:00,82.9,74.6,17.42,ESE,107,0.0,1.0,76,0.00,,,0.00,VWS V13.01,2013-09-11 00:40:00,
2013-09-10 20:45:00,82.7,74.8,17.42,ESE,107,0.0,1.0,77,0.00,,,0.00,VWS V13.01,2013-09-11 00:45:00,
2013-09-10 20:50:00,82.5,74.6,17.42,ESE,107,0.0,2.0,77,0.00,,,0.00,VWS V13.01,2013-09-11 00:50:00,
2013-09-10 20:56:00,82.5,74.9,17.42,East,94,0.0,3.0,78,0.00,,,0.00,VWS V13.01,2013-09-11 00:56:00,
2013-09-10 21:01:00,82.3,74.8,16.92,East,94,0.0,2.0,78,0.00,,,0.00,VWS V13.01,2013-09-11 01:01:00,
2013-09-10 21:06:00,82.3,75.1,19.19,East,97,0.0,3.0,79,0.00,,,0.00,VWS V13.01,2013-09-11 01:06:00,
2013-09-10 21:11:00,82.1,74.9,19.19,East,97,0.0,2.0,79,0.00,,,0.00,VWS V13.01,2013-09-11 01:11:00,
2013-09-10 21:16:00,82.0,74.8,16.92,East,97,0.0,1.0,79,0.00,,,0.00,VWS V13.01,2013-09-11 01:16:00,
2013-09-10 21:21:00,81.9,75.1,16.92,East,96,0.0,1.0,80,0.00,,,0.00,VWS V13.01,2013-09-11 01:21:00,
2013-09-10 21:26:00,81.8,75.0,16.92,East,96,0.0,2.0,80,0.00,,,0.00,VWS V13.01,2013-09-11 01:26:00,
2013-09-10 21:31:00,81.8,75.4,16.92,East,96,0.0,1.0,81,0.00,,,0.00,VWS V13.01,2013-09-11 01:31:00,
2013-09-10 21:36:00,81.6,74.8,16.92,East,97,0.0,1.0,80,0.00,,,0.00,VWS V13.01,2013-09-11 01:36:00,
2013-09-10 21:41:00,81.5,75.1,16.92,East,96,0.0,2.0,81,0.00,,,0.00,VWS V13.01,2013-09-11 01:41:00,
2013-09-10 21:46:00,81.3,74.5,16.17,East,96,0.0,1.0,80,0.00,,,0.00,VWS V13.01,2013-09-11 01:46:00,
2013-09-10 21:51:00,81.2,75.2,16.17,East,96,1.0,2.0,82,0.00,,,0.00,VWS V13.01,2013-09-11 01:51:00,
2013-09-10 21:56:00,81.1,74.7,16.17,East,96,0.0,1.0,81,0.00,,,0.00,VWS V13.01,2013-09-11 01:56:00,
2013-09-10 22:01:00,81.0,75.0,16.92,East,97,0.0,1.0,82,0.00,,,0.00,VWS V13.01,2013-09-11 02:01:00,
2013-09-10 22:06:00,80.9,74.5,16.92,East,97,0.0,1.0,81,0.00,,,0.00,VWS V13.01,2013-09-11 02:06:00,
2013-09-10 22:11:00,80.8,74.4,16.17,East,96,1.0,1.0,81,0.00,,,0.00,VWS V13.01,2013-09-11 02:11:00,
2013-09-10 22:16:00,80.9,75.3,16.17,East,97,0.0,2.0,83,0.00,,,0.00,VWS V13.01,2013-09-11 02:16:00,
2013-09-10 22:21:00,80.9,75.3,16.17,SE,145,0.0,2.0,83,0.00,,,0.00,VWS V13.01,2013-09-11 02:21:00,
2013-09-10 22:26:00,80.7,74.7,16.17,SE,145,0.0,1.0,82,0.00,,,0.00,VWS V13.01,2013-09-11 02:26:00,
2013-09-10 22:31:00,80.6,75.0,31.39,ESE,120,1.0,2.0,83,0.00,,,0.00,VWS V13.01,2013-09-11 02:31:00,
2013-09-10 22:36:00,80.5,74.9,29.12,ESE,121,0.0,1.0,83,0.00,,,0.00,VWS V13.01,2013-09-11 02:36:00,
2013-09-10 22:41:00,80.3,74.7,29.12,ESE,119,0.0,1.0,83,0.00,,,0.00,VWS V13.01,2013-09-11 02:41:00,
2013-09-10 22:46:00,80.2,74.6,29.12,ESE,120,0.0,0.0,83,0.00,,,0.00,VWS V13.01,2013-09-11 02:46:00,
2013-09-10 22:51:00,80.0,74.4,29.12,ESE,119,0.0,1.0,83,0.00,,,0.00,VWS V13.01,2013-09-11 02:51:00,
2013-09-10 22:56:00,80.0,74.7,29.12,ESE,120,0.0,0.0,84,0.00,,,0.00,VWS V13.01,2013-09-11 02:56:00,
2013-09-10 23:01:00,79.8,74.5,29.12,ESE,120,0.0,1.0,84,0.00,,,0.00,VWS V13.01,2013-09-11 03:01:00,
2013-09-10 23:06:00,79.8,74.5,29.12,ESE,120,0.0,2.0,84,0.00,,,0.00,VWS V13.01,2013-09-11 03:06:00,
2013-09-10 23:11:00,79.8,74.2,29.12,ESE,120,0.0,1.0,83,0.00,,,0.00,VWS V13.01,2013-09-11 03:11:00,
2013-09-10 23:16:00,79.6,74.3,29.12,ESE,119,0.0,0.0,84,0.00,,,0.00,VWS V13.01,2013-09-11 03:16:00,
2013-09-10 23:21:00,79.5,74.2,29.12,ESE,120,0.0,1.0,84,0.00,,,0.00,VWS V13.01,2013-09-11 03:21:00,
2013-09-10 23:26:00,79.4,74.2,29.12,ESE,121,0.0,0.0,84,0.00,,,0.00,VWS V13.01,2013-09-11 03:26:00,
2013-09-10 23:31:00,79.3,74.1,29.12,ESE,119,0.0,1.0,84,0.00,,,0.00,VWS V13.01,2013-09-11 03:31:00,
2013-09-10 23:36:00,79.2,74.3,29.12,ESE,120,0.0,2.0,85,0.00,,,0.00,VWS V13.01,2013-09-11 03:36:00,
2013-09-10 23:41:00,79.2,74.3,29.12,ESE,120,0.0,0.0,85,0.00,,,0.00,VWS V13.01,2013-09-11 03:41:00,
2013-09-10 23:46:00,79.1,74.2,29.12,SSE,147,0.0,3.0,85,0.00,,,0.00,VWS V13.01,2013-09-11 03:46:00,
2013-09-10 23:51:00,79.2,74.3,29.12,SSE,147,0.0,2.0,85,0.00,,,0.00,VWS V13.01,2013-09-11 03:51:00,
2013-09-10 23:56:00,79.1,74.2,29.12,SE,146,0.0,1.0,85,0.00,,,0.00,VWS V13.01,2013-09-11 03:56:00,